Two Rivers, Alaska
Current Conditions -  °F | °C
As of 3:58 PM on Tuesday 25 Nov 2014 (Local Time) from PAEI Reporting Station
Light Snow Light Snow  
Wind Chill: 15°   Ceiling: 1800
Heat Index: 15°   Visibility: 3mi
Dew Point: 11°   Wind: 0mph
Humidity: 86%   Direction: NA
Pressure: 30.27"   Gusts: NA
Location:  64.87°N, 147.09°W
Report Text: PAEI 260058Z 00000KT 3SM R32/5000FT -SN BR FEW009 BKN018 OVC040 M10/M12 A3027 RMK AO2A SLP266 P0000 T10961116 $
Loading
Personal Weather Stations






























Interactive Weather Map New forecast layout! Learn more

10-Day Weather Forecast

Advertisements
Track Severe Weather on mobile